Pine Cliff, Utah
Current Conditions -  °F | °C
As of 10:53 PM on Wednesday 26 Nov 2014 (Local Time) from KEVW Reporting Station
Clear Clear  
Wind Chill: 24°   Ceiling: Unl
Heat Index: 33°   Visibility: 10mi
Dew Point: 22°   Wind: 12mph
Humidity: 64%   Direction: 210°SSW
Pressure: 30.39"   Gusts: NA
Location:  40.9431°N, 111.212°W
Report Text: KEVW 270553Z AUTO 21010KT 10SM CLR 01/M06 A3039 RMK AO2 SLP274 T00061056 10044 20000 50000
Loading
Personal Weather Stations






























Interactive Weather Map New forecast layout! Learn more

10-Day Weather Forecast

Advertisements
Track Severe Weather on mobile